Página principal
METAR-TAF:

METAR-TAF

Aeroportos :

Aeroporto Internacional Ben Gurion

Tel Aviv / Ben Gurion, Israel

latitude: 32-00N, longitude: 034-54E, altura: 40 m

Observação actual do tempo

O boletim foi feito há 9 minutos, às 22:50 UTC
Vento 3 kt com direcção variável
Temperatura 15°C
Humidade 59%
Pressão 1022 hPa
Visibilidade 10 km ou mais
sem nuvens abaixo de 1500 metros e sem cumulonimbus

METAR: LLBG 142250Z VRB03KT CAVOK 15/07 Q1022 NOSIG

Hora: 00:59 (22:59 UTC)

Previsão

O boletim foi feito há 5 horas e 57 minutos, às 17:02 UTC
Previsão válida de 14 às 18 UTC a 15 às 18 UTC
Vento 10 kt de nor-nordeste
Visibilidade 10 km ou mais
sem nuvens abaixo de 1500 metros e sem cumulonimbus
Tornando-se
de 14 às 20 UTC a 14 às 23 UTC
Vento 12 kt de este
Probabilidade 40%
de 15 às 02 UTC a 15 às 08 UTC
Vento 17 kt de este

TAF: LLBG 141702Z 1418/1518 02010KT CAVOK BECMG 1420/1423 10012KT PROB40 1502/1508 10017KT TX24/1512Z TN12/1504Z

Observações e previsões do tempo de mais de 4000 aeroportos (mensagens METAR e TAF).

As estações disponíveis são os pontos amarelos e vermelhos sobre o mapa.

Mova o rato sobre o mapa para ver o nome da estação.

Depois clique no ponto para visualizar as observações e previsões meteorológicas.

Para alterar o mapa : clique nos botões verdes com uma cruz preta para aumentar o zoom; no botão verde com uma pitada de zoom; ou nas setas verdes para mapas adjacentes.


METAR-TAF: